Time;durP1;ratioP1;P1;durP2;ratioP2;P2;SDS_P1;SDS_P2;PMS_P1;PMS_P2;Temp;Humidity;BMP_temperature;BMP_pressure;BME280_temperature;BME280_humidity;BME280_pressure;Samples;Min_cycle;Max_cycle;Signal;HPM_P1;HPM_P2
2022/12/04 00:02:24;;;;;;;32.10;11.35;;;;;;;6.66;69.10;102157.31;5049174;28;20033;-75
2022/12/04 00:04:50;;;;;;;19.92;9.05;;;;;;;6.79;69.31;102161.25;5048950;28;20033;-74
2022/12/04 00:07:15;;;;;;;16.92;9.57;;;;;;;6.87;68.57;102164.47;5049062;28;20021;-76
2022/12/04 00:09:41;;;;;;;15.40;9.48;;;;;;;6.83;68.46;102147.66;5049026;28;20482;-74
2022/12/04 00:12:06;;;;;;;19.70;9.73;;;;;;;6.66;69.21;102122.56;5049283;28;20078;-74
2022/12/04 00:14:32;;;;;;;17.33;9.45;;;;;;;6.80;69.17;102157.63;5048959;28;20062;-75
2022/12/04 00:16:57;;;;;;;12.75;9.23;;;;;;;6.71;68.81;102108.06;5048754;28;20115;-73
2022/12/04 00:19:23;;;;;;;11.95;7.40;;;;;;;7.04;68.78;102156.59;5048906;28;20058;-75
2022/12/04 00:21:49;;;;;;;13.75;7.72;;;;;;;7.02;68.44;102147.75;5049381;28;20035;-75
2022/12/04 00:24:15;;;;;;;12.77;6.60;;;;;;;6.99;68.95;102161.28;5048152;28;20036;-75
2022/12/04 00:26:40;;;;;;;19.88;7.50;;;;;;;7.04;68.62;102167.28;5048821;28;20021;-74
2022/12/04 00:29:06;;;;;;;14.68;9.13;;;;;;;7.12;68.56;102170.53;5048277;28;20029;-74
2022/12/04 00:31:31;;;;;;;13.20;8.05;;;;;;;7.15;68.60;102175.75;5048275;28;20028;-74
2022/12/04 00:33:57;;;;;;;12.25;7.78;;;;;;;7.11;68.55;102176.81;5049064;28;20112;-74
2022/12/04 00:36:25;;;;;;;12.98;8.18;;;;;;;7.12;68.63;102176.72;5050546;28;20110;-74
2022/12/04 00:38:50;;;;;;;32.72;11.70;;;;;;;7.13;68.79;102169.56;5052314;28;20037;-74
2022/12/04 00:41:19;;;;;;;20.58;11.10;;;;;;;7.01;68.88;102152.25;5049310;28;20041;-75
2022/12/04 00:43:45;;;;;;;19.17;11.02;;;;;;;6.96;69.37;102137.31;5046936;28;20032;-74
2022/12/04 00:46:11;;;;;;;23.40;12.00;;;;;;;7.10;69.10;102167.91;5047659;28;20065;-75
2022/12/04 00:48:37;;;;;;;30.13;11.20;;;;;;;7.02;68.93;102143.28;5045634;28;20053;-74
2022/12/04 00:51:05;;;;;;;18.50;11.35;;;;;;;7.22;68.77;102161.16;5047717;28;20147;-74
2022/12/04 00:53:30;;;;;;;24.52;11.18;;;;;;;7.32;69.02;102159.81;5048035;28;20079;-75
2022/12/04 00:55:56;;;;;;;29.83;11.68;;;;;;;7.32;68.72;102173.22;5045507;28;20045;-74
2022/12/04 00:58:21;;;;;;;17.42;11.05;;;;;;;7.43;68.85;102170.91;5047665;28;20035;-74
2022/12/04 01:00:47;;;;;;;15.88;9.95;;;;;;;7.47;68.16;102188.59;5047729;28;20036;-75
2022/12/04 01:03:12;;;;;;;28.40;12.80;;;;;;;7.49;68.68;102175.16;5047544;28;20037;-75
2022/12/04 01:05:40;;;;;;;24.30;12.20;;;;;;;7.46;68.40;102180.66;5048031;28;20037;-73
2022/12/04 01:08:05;;;;;;;19.95;11.65;;;;;;;7.44;68.19;102167.31;5047982;28;20029;-74
2022/12/04 01:10:31;;;;;;;32.88;14.13;;;;;;;7.48;68.38;102174.28;5047432;28;20106;-75
2022/12/04 01:12:56;;;;;;;22.67;13.05;;;;;;;7.48;68.17;102166.25;5047784;28;20531;-75
2022/12/04 01:15:21;;;;;;;18.45;11.02;;;;;;;7.56;68.41;102169.44;5047694;28;20702;-75
2022/12/04 01:17:47;;;;;;;27.48;11.48;;;;;;;7.60;68.49;102171.06;5048026;28;20029;-76
2022/12/04 01:20:14;;;;;;;20.95;12.82;;;;;;;7.66;67.77;102173.47;5048625;28;20033;-74
2022/12/04 01:22:39;;;;;;;25.40;12.80;;;;;;;7.68;67.79;102176.94;5047874;28;20033;-75
2022/12/04 01:25:06;;;;;;;22.02;12.50;;;;;;;7.65;68.11;102179.75;5047492;28;20098;-75
2022/12/04 01:27:31;;;;;;;21.77;12.05;;;;;;;7.72;67.78;102182.16;5047450;28;21192;-76
2022/12/04 01:29:57;;;;;;;21.73;13.60;;;;;;;7.70;67.45;102162.63;5047750;28;20028;-75
2022/12/04 01:32:22;;;;;;;23.88;12.50;;;;;;;7.73;66.92;102173.19;5047927;28;20025;-75
2022/12/04 01:34:48;;;;;;;20.27;12.27;;;;;;;7.70;67.15;102176.00;5048311;28;20449;-76
2022/12/04 01:37:13;;;;;;;23.33;12.70;;;;;;;7.61;67.42;102175.47;5050440;28;20033;-75
2022/12/04 01:39:39;;;;;;;28.45;15.30;;;;;;;7.55;66.91;102164.19;5051761;28;20082;-74
2022/12/04 01:42:04;;;;;;;29.23;14.57;;;;;;;7.51;67.42;102165.25;5054713;28;20029;-75
2022/12/04 01:44:31;;;;;;;25.08;15.25;;;;;;;7.36;68.04;102168.59;5059687;28;20040;-76
2022/12/04 01:46:59;;;;;;;26.65;14.85;;;;;;;7.32;67.74;102167.84;5055667;28;20470;-74
2022/12/04 01:49:38;;;;;;;26.48;15.32;;;;;;;7.38;68.39;102166.72;5051094;28;20037;-75
2022/12/04 01:52:10;;;;;;;31.58;16.70;;;;;;;7.37;68.06;102159.63;5051598;28;20047;-75
2022/12/04 01:54:41;;;;;;;27.88;16.52;;;;;;;7.25;67.75;102134.25;5051285;28;20036;-75
2022/12/04 01:57:20;;;;;;;31.98;16.85;;;;;;;7.35;68.61;102154.34;5051080;28;20045;-75
2022/12/04 02:00:03;;;;;;;30.35;15.43;;;;;;;7.25;68.23;102155.66;5051134;28;20579;-74
2022/12/04 02:02:30;;;;;;;;;;;;;;;7.26;68.86;102153.88;5052350;28;20373;-74
2022/12/04 02:04:56;;;;;;;26.85;14.32;;;;;;;7.18;68.44;102143.50;5051317;28;19919;-75
2022/12/04 02:07:21;;;;;;;25.73;14.93;;;;;;;7.24;68.55;102153.94;5051080;28;20033;-74
2022/12/04 02:09:52;;;;;;;35.80;16.38;;;;;;;7.13;68.41;102154.38;5051312;28;20032;-75
2022/12/04 02:12:31;;;;;;;32.08;16.02;;;;;;;7.14;68.82;102149.91;5051287;28;20035;-75
2022/12/04 02:15:05;;;;;;;28.50;15.73;;;;;;;7.09;68.74;102154.59;5050843;28;20029;-75
2022/12/04 02:18:02;;;;;;;30.58;16.15;;;;;;;7.10;68.71;102156.31;5051062;28;20025;-76
2022/12/04 02:20:44;;;;;;;28.95;15.02;;;;;;;7.10;69.14;102150.97;5051189;28;20476;-74
2022/12/04 02:23:28;;;;;;;27.23;15.33;;;;;;;7.17;69.22;102155.13;5051172;28;20025;-74
2022/12/04 02:26:15;;;;;;;31.95;15.10;;;;;;;7.10;69.38;102159.00;5051282;28;20259;-74
2022/12/04 02:29:05;;;;;;;24.52;14.68;;;;;;;6.99;69.84;102139.88;5051370;28;20032;-75
2022/12/04 02:31:47;;;;;;;28.55;14.57;;;;;;;7.02;70.01;102161.13;5036485;28;20528;-74
2022/12/04 02:34:19;;;;;;;25.40;14.60;;;;;;;7.08;70.13;102166.22;5051866;28;20029;-74
2022/12/04 02:37:11;;;;;;;25.45;13.77;;;;;;;6.99;70.73;102158.59;5052968;28;20092;-75
2022/12/04 02:39:48;;;;;;;22.73;13.23;;;;;;;7.00;70.63;102161.19;5038983;28;20147;-75
2022/12/04 02:42:20;;;;;;;24.48;13.07;;;;;;;6.75;70.79;102123.06;5050372;28;20037;-74
2022/12/04 02:44:51;;;;;;;29.00;14.73;;;;;;;6.89;70.88;102151.88;5048919;28;20047;-77
2022/12/04 02:47:20;;;;;;;22.52;13.30;;;;;;;6.94;71.01;102149.91;5052319;28;20079;-74
2022/12/04 02:49:58;;;;;;;23.05;13.75;;;;;;;6.87;71.72;102159.09;5055330;28;20033;-75
2022/12/04 02:52:32;;;;;;;27.42;13.38;;;;;;;6.94;72.02;102164.13;5051035;28;20476;-75
2022/12/04 02:55:03;;;;;;;19.70;12.05;;;;;;;6.97;71.95;102145.28;5050304;28;20029;-75
2022/12/04 02:57:35;;;;;;;23.50;12.83;;;;;;;7.10;71.90;102161.66;5047911;28;20033;-74
2022/12/04 03:00:04;;;;;;;22.75;13.05;;;;;;;7.15;71.41;102159.69;5050443;28;20032;-75
2022/12/04 03:02:58;;;;;;;19.30;11.93;;;;;;;7.25;71.41;102150.31;5049913;28;20040;-75
2022/12/04 03:05:32;;;;;;;27.80;12.82;;;;;;;7.22;70.89;102145.09;5007349;28;20095;-75
2022/12/04 03:08:05;;;;;;;28.08;14.45;;;;;;;7.32;70.66;102146.44;5007800;28;20045;-76
2022/12/04 03:10:35;;;;;;;27.83;13.38;;;;;;;7.35;70.34;102146.31;5007161;28;20038;-76
2022/12/04 03:13:24;;;;;;;18.20;11.30;;;;;;;7.34;70.70;102149.91;5007744;28;20045;-75
2022/12/04 03:15:58;;;;;;;21.48;13.32;;;;;;;7.31;70.82;102165.25;4930182;29;20403;-76
2022/12/04 03:18:31;;;;;;;21.85;12.10;;;;;;;7.19;71.32;102155.94;4930159;29;20054;-76
2022/12/04 03:21:03;;;;;;;22.65;13.10;;;;;;;7.15;71.76;102154.34;4930454;29;20052;-76
2022/12/04 03:23:36;;;;;;;22.52;11.30;;;;;;;7.06;72.61;102165.44;4929913;29;20551;-77
2022/12/04 03:26:14;;;;;;;;;;;;;;;7.15;72.72;102165.03;4930529;29;20028;-74
2022/12/04 03:28:55;;;;;;;21.85;12.15;;;;;;;7.07;73.59;102156.44;4929872;29;19938;-75
2022/12/04 03:31:48;;;;;;;25.58;12.15;;;;;;;7.11;74.01;102158.06;4930261;29;20103;-75
2022/12/04 03:34:32;;;;;;;25.08;14.18;;;;;;;7.00;73.82;102113.03;4891821;29;20066;-75
2022/12/04 03:37:02;;;;;;;23.23;12.13;;;;;;;7.31;73.37;102160.75;4891647;29;20439;-74
2022/12/04 03:39:28;;;;;;;20.48;11.70;;;;;;;7.15;73.51;102119.56;4891271;29;20043;-74
2022/12/04 03:42:12;;;;;;;19.17;12.63;;;;;;;7.30;73.36;102140.28;4897549;29;20077;-74
2022/12/04 03:44:43;;;;;;;19.75;12.75;;;;;;;7.23;73.55;102124.56;4910499;29;20111;-75
2022/12/04 03:47:17;;;;;;;22.05;12.68;;;;;;;7.35;72.80;102170.41;4911000;29;20048;-75
2022/12/04 03:50:14;;;;;;;21.00;12.43;;;;;;;7.28;72.87;102166.25;4892117;29;20036;-75
2022/12/04 03:52:45;;;;;;;21.73;11.45;;;;;;;7.33;73.51;102163.38;4884654;29;20059;-74
2022/12/04 03:55:30;;;;;;;21.95;12.95;;;;;;;7.19;73.90;102152.38;4912655;29;20056;-75
2022/12/04 03:58:02;;;;;;;18.35;11.98;;;;;;;7.30;73.43;102153.69;4905492;29;20190;-76
2022/12/04 04:00:30;;;;;;;20.05;12.43;;;;;;;7.18;73.29;102159.56;4892641;29;20120;-75
2022/12/04 04:03:05;;;;;;;24.02;12.85;;;;;;;7.30;73.79;102155.47;4891720;29;20131;-75
2022/12/04 04:05:32;;;;;;;20.98;11.35;;;;;;;7.36;73.54;102166.78;4911629;29;20052;-75
2022/12/04 04:10:48;;;;;;;18.65;11.80;;;;;;;7.42;73.77;102155.81;4926119;29;20145;-74
2022/12/04 04:24:39;;;;;;;23.65;12.60;;;;;;;7.00;74.53;102134.44;4921793;29;20518;-75
2022/12/04 04:27:04;;;;;;;21.38;13.10;;;;;;;7.19;74.34;102169.31;4948639;29;20027;-75
2022/12/04 04:29:30;;;;;;;22.08;12.80;;;;;;;7.24;74.44;102167.31;4985208;28;20112;-74
2022/12/04 04:32:06;;;;;;;21.10;12.80;;;;;;;7.26;74.63;102168.13;5041426;28;20039;-74
2022/12/04 04:34:38;;;;;;;21.67;12.80;;;;;;;7.29;74.23;102169.78;5048442;28;20032;-74
2022/12/04 04:37:21;;;;;;;22.63;13.25;;;;;;;7.35;74.41;102183.78;5048314;28;20082;-76
2022/12/04 04:39:59;;;;;;;25.35;15.00;;;;;;;7.40;73.74;102187.13;5031432;28;20037;-75
2022/12/04 04:42:31;;;;;;;22.83;13.57;;;;;;;7.38;74.16;102190.81;5048393;28;20033;-74
2022/12/04 04:45:11;;;;;;;21.13;13.50;;;;;;;7.48;73.20;102190.34;5048552;28;20120;-75
2022/12/04 04:47:43;;;;;;;21.13;11.50;;;;;;;7.45;73.74;102187.81;5048379;28;20095;-74
2022/12/04 04:50:10;;;;;;;;;;;;;;;7.51;73.72;102184.88;5048699;28;20056;-74
2022/12/04 04:52:40;;;;;;;22.55;12.82;;;;;;;7.43;73.74;102195.00;5048690;28;20372;-73
2022/12/04 04:55:06;;;;;;;19.80;13.05;;;;;;;7.28;74.03;102198.34;5049186;28;20415;-74
2022/12/04 04:57:34;;;;;;;19.33;11.75;;;;;;;7.08;74.15;102158.22;5031351;28;20045;-74
2022/12/04 05:00:01;;;;;;;22.00;12.13;;;;;;;7.41;74.24;102206.72;5051423;28;20036;-75
2022/12/04 05:02:27;;;;;;;21.60;12.93;;;;;;;7.32;73.66;102202.66;5051661;28;20033;-74
2022/12/04 05:04:54;;;;;;;24.60;14.88;;;;;;;7.17;74.53;102159.63;5047903;28;20053;-75
2022/12/04 05:07:19;;;;;;;24.02;14.68;;;;;;;7.44;74.41;102191.41;5049101;28;20112;-74
2022/12/04 05:09:45;;;;;;;23.50;12.70;;;;;;;7.53;74.29;102185.66;5050890;28;20540;-75
2022/12/04 05:12:10;;;;;;;25.27;14.15;;;;;;;7.58;74.56;102191.66;5052563;28;20049;-76
2022/12/04 05:14:36;;;;;;;22.88;12.98;;;;;;;7.56;74.15;102171.25;5051780;28;20036;-75
2022/12/04 05:17:04;;;;;;;20.83;13.13;;;;;;;7.65;73.29;102187.78;5051702;28;20040;-74
2022/12/04 05:22:36;;;;;;;25.65;14.60;;;;;;;7.76;73.73;102191.81;5051801;28;20428;-75
2022/12/04 05:25:02;;;;;;;20.98;13.10;;;;;;;7.76;73.18;102181.97;5051740;28;20033;-74
2022/12/04 05:27:29;;;;;;;21.13;12.95;;;;;;;7.70;73.09;102176.00;5051633;28;20037;-76
2022/12/04 05:29:57;;;;;;;22.50;13.23;;;;;;;7.72;72.56;102193.75;5049544;28;20127;-76
2022/12/04 05:32:24;;;;;;;22.35;12.95;;;;;;;7.61;73.36;102196.03;5050326;28;20087;-75
2022/12/04 05:34:51;;;;;;;21.55;12.50;;;;;;;7.62;73.80;102200.44;5051630;28;20025;-73
2022/12/04 05:37:17;;;;;;;26.00;13.82;;;;;;;7.47;74.22;102164.50;5051535;28;20471;-75
2022/12/04 05:39:43;;;;;;;18.77;10.98;;;;;;;7.77;73.63;102204.28;5050213;28;20480;-75
2022/12/04 05:42:08;;;;;;;21.00;12.65;;;;;;;7.66;74.31;102204.72;5051539;28;20032;-73
2022/12/04 05:44:34;;;;;;;16.17;10.43;;;;;;;7.68;74.08;102209.06;5051607;28;20178;-76
2022/12/04 05:46:59;;;;;;;18.65;9.77;;;;;;;7.63;73.68;102213.78;5051854;28;20024;-74
2022/12/04 05:49:28;;;;;;;20.75;11.65;;;;;;;7.58;74.63;102206.88;5051911;28;20036;-74
2022/12/04 05:51:54;;;;;;;23.33;12.63;;;;;;;7.61;74.46;102202.25;5051711;28;20049;-74
2022/12/04 05:54:19;;;;;;;18.52;10.80;;;;;;;7.65;74.82;102209.22;5051553;28;20035;-74
2022/12/04 05:56:45;;;;;;;16.95;11.77;;;;;;;7.64;74.70;102217.31;5051665;28;20035;-75
2022/12/04 05:59:12;;;;;;;20.95;12.32;;;;;;;7.61;74.67;102215.63;5051570;28;20063;-74
2022/12/04 06:01:37;;;;;;;19.38;10.82;;;;;;;7.56;75.00;102204.25;5051979;28;20124;-75
2022/12/04 06:04:03;;;;;;;21.55;12.02;;;;;;;7.41;75.52;102178.16;5055890;28;20049;-73
2022/12/04 06:06:28;;;;;;;20.50;12.00;;;;;;;7.57;74.44;102211.38;5056133;28;20037;-73
2022/12/04 06:08:56;;;;;;;17.23;10.93;;;;;;;7.67;74.65;102206.47;5053407;28;20028;-75
2022/12/04 06:11:27;;;;;;;16.90;9.70;;;;;;;7.74;74.74;102218.63;5051617;28;20087;-74
2022/12/04 06:13:53;;;;;;;13.87;8.60;;;;;;;7.64;74.48;102215.50;5051753;28;20028;-74
2022/12/04 06:16:25;;;;;;;13.95;9.95;;;;;;;7.60;74.68;102219.25;5051363;28;20263;-73
2022/12/04 06:18:53;;;;;;;14.80;9.05;;;;;;;7.47;75.23;102203.78;5051386;28;20029;-74
2022/12/04 06:21:21;;;;;;;16.60;10.45;;;;;;;7.56;75.38;102220.31;5050267;28;20064;-74
2022/12/04 06:23:47;;;;;;;16.45;10.00;;;;;;;7.59;75.45;102225.53;5051061;28;20488;-73
2022/12/04 06:26:13;;;;;;;16.38;9.73;;;;;;;7.57;75.99;102234.59;5050959;28;20024;-74
2022/12/04 06:28:39;;;;;;;21.65;13.18;;;;;;;7.53;76.28;102238.31;5051983;28;20021;-75
2022/12/04 06:31:07;;;;;;;23.63;13.25;;;;;;;7.56;77.06;102236.38;5051908;28;20029;-75
2022/12/04 06:33:33;;;;;;;21.48;12.18;;;;;;;7.52;77.05;102201.81;5051639;28;20049;-74
2022/12/04 06:36:09;;;;;;;35.90;16.40;;;;;;;7.75;76.99;102233.78;5050610;28;20025;-73
2022/12/04 06:38:35;;;;;;;24.85;12.98;;;;;;;7.89;76.74;102238.53;5051035;28;20036;-74
2022/12/04 06:41:05;;;;;;;22.73;14.23;;;;;;;7.92;76.77;102219.66;5050840;28;20021;-76
2022/12/04 06:43:30;;;;;;;15.30;9.40;;;;;;;7.99;76.38;102224.66;5051042;28;20044;-76
2022/12/04 06:45:59;;;;;;;22.85;12.55;;;;;;;8.07;75.90;102238.56;5051289;28;20064;-74
2022/12/04 06:48:27;;;;;;;21.42;11.02;;;;;;;7.80;75.68;102182.69;5051170;28;20103;-77
2022/12/04 06:51:04;;;;;;;16.58;9.90;;;;;;;8.06;75.07;102210.03;5050848;28;20135;-75
2022/12/04 06:53:31;;;;;;;11.18;7.90;;;;;;;8.23;75.27;102233.38;5049436;28;20110;-74
2022/12/04 06:56:02;;;;;;;12.90;7.80;;;;;;;8.15;75.15;102233.75;5050318;28;20032;-74
2022/12/04 06:58:28;;;;;;;16.70;8.18;;;;;;;8.25;75.38;102227.97;5050224;28;20103;-74
2022/12/04 07:00:54;;;;;;;9.70;5.57;;;;;;;8.09;74.80;102195.63;5050400;28;20041;-74
2022/12/04 07:03:20;;;;;;;12.25;7.47;;;;;;;8.23;74.49;102233.38;5045531;28;20401;-75
2022/12/04 07:05:46;;;;;;;9.05;6.13;;;;;;;7.96;74.18;102197.13;5049909;28;20025;-74
2022/12/04 07:08:11;;;;;;;10.18;6.82;;;;;;;8.16;74.11;102232.78;5052803;28;20041;-75
2022/12/04 07:10:37;;;;;;;9.43;5.97;;;;;;;8.08;74.82;102224.22;5053889;28;20025;-76
2022/12/04 07:13:03;;;;;;;11.38;6.65;;;;;;;8.20;74.27;102234.38;5050875;28;20110;-74
2022/12/04 07:15:29;;;;;;;8.38;5.60;;;;;;;8.21;75.02;102219.19;5049467;28;20036;-75
2022/12/04 07:17:54;;;;;;;6.97;5.13;;;;;;;8.26;74.93;102217.16;5049858;28;20033;-74
2022/12/04 07:20:20;;;;;;;8.98;4.82;;;;;;;8.24;74.69;102216.34;5048727;28;20024;-75
2022/12/04 07:22:45;;;;;;;11.77;4.70;;;;;;;8.21;74.09;102230.78;5049466;28;20037;-76
2022/12/04 07:25:10;;;;;;;6.78;4.60;;;;;;;8.11;74.63;102228.56;5049276;28;20037;-74
2022/12/04 07:27:36;;;;;;;5.95;3.55;;;;;;;8.09;74.73;102230.47;5049330;28;20025;-74
2022/12/04 07:30:03;;;;;;;5.82;4.00;;;;;;;8.15;75.82;102230.19;5049692;28;20021;-74
2022/12/04 07:32:29;;;;;;;16.95;10.30;;;;;;;8.19;75.42;102237.16;5048803;28;20033;-74
2022/12/04 07:34:54;;;;;;;7.97;5.65;;;;;;;8.26;75.95;102233.22;5048890;28;20035;-74
2022/12/04 07:37:19;;;;;;;17.00;7.00;;;;;;;8.22;76.02;102220.94;5050168;28;20025;-74
2022/12/04 07:39:45;;;;;;;9.63;5.25;;;;;;;8.09;75.50;102215.25;5049651;28;20408;-76
2022/12/04 07:42:10;;;;;;;6.63;4.15;;;;;;;8.15;75.38;102249.81;5047737;28;20028;-75
2022/12/04 07:44:36;;;;;;;6.47;4.35;;;;;;;8.17;76.29;102244.38;5049862;28;20041;-75
2022/12/04 07:47:01;;;;;;;9.50;5.45;;;;;;;8.16;76.10;102248.00;5049338;28;20032;-74
2022/12/04 07:49:27;;;;;;;9.23;6.00;;;;;;;8.23;76.64;102238.72;5049439;28;20058;-75
2022/12/04 07:51:52;;;;;;;7.22;4.32;;;;;;;8.34;76.67;102251.69;5049350;28;20049;-75
2022/12/04 07:54:18;;;;;;;15.75;6.07;;;;;;;8.38;75.99;102247.94;5049381;28;20028;-74
2022/12/04 07:56:43;;;;;;;9.07;5.22;;;;;;;8.50;75.87;102250.88;5049359;28;20037;-76
2022/12/04 07:59:08;;;;;;;10.15;6.13;;;;;;;8.34;75.12;102228.44;5048872;28;20348;-76
2022/12/04 08:01:34;;;;;;;8.63;5.72;;;;;;;8.57;75.11;102251.47;5049108;28;20144;-74
2022/12/04 08:04:00;;;;;;;9.38;5.05;;;;;;;8.57;75.14;102249.66;5049695;28;20021;-74
2022/12/04 08:06:27;;;;;;;6.90;4.95;;;;;;;8.57;75.04;102255.03;5048848;28;20033;-74
2022/12/04 08:08:52;;;;;;;7.20;5.03;;;;;;;8.47;74.41;102226.91;5049145;28;20036;-74
2022/12/04 08:11:21;;;;;;;8.85;5.55;;;;;;;8.53;74.28;102215.03;5050405;28;20037;-76
2022/12/04 08:13:47;;;;;;;6.68;4.68;;;;;;;8.70;74.58;102240.09;5053774;28;20134;-74
2022/12/04 08:16:14;;;;;;;7.13;5.35;;;;;;;8.66;74.42;102235.81;5053032;28;20524;-75
2022/12/04 08:18:40;;;;;;;8.02;4.68;;;;;;;8.63;75.33;102243.13;5048881;28;20675;-75
2022/12/04 08:21:08;;;;;;;10.52;7.47;;;;;;;8.58;75.70;102231.75;5047977;28;20580;-75
2022/12/04 08:23:34;;;;;;;8.05;4.80;;;;;;;8.40;75.94;102198.66;5049008;28;20146;-74
2022/12/04 08:26:01;;;;;;;7.93;5.18;;;;;;;8.65;75.91;102236.75;5049410;28;20047;-75
2022/12/04 08:28:27;;;;;;;7.78;4.93;;;;;;;8.60;76.35;102228.06;5048062;28;20056;-74
2022/12/04 08:30:52;;;;;;;9.20;5.97;;;;;;;8.76;76.04;102228.19;5049245;28;20036;-75
2022/12/04 08:33:18;;;;;;;9.65;5.88;;;;;;;8.82;75.49;102233.28;5049171;28;20048;-74
2022/12/04 08:35:43;;;;;;;7.22;5.45;;;;;;;8.88;76.14;102226.72;5048470;28;20115;-74
2022/12/04 08:38:09;;;;;;;9.02;6.25;;;;;;;8.92;75.70;102229.19;5048833;28;20086;-74
2022/12/04 08:40:34;;;;;;;9.63;6.22;;;;;;;9.01;75.98;102222.50;5048369;28;20116;-74
2022/12/04 08:43:00;;;;;;;8.80;6.72;;;;;;;9.06;75.99;102231.19;5048764;28;20021;-76
2022/12/04 08:45:25;;;;;;;7.97;4.97;;;;;;;8.92;75.57;102212.22;5048392;28;20534;-75
2022/12/04 08:47:51;;;;;;;8.25;5.38;;;;;;;9.00;76.45;102223.44;5048944;28;20040;-75
2022/12/04 08:50:16;;;;;;;11.85;5.85;;;;;;;9.02;76.75;102216.22;5048373;28;20053;-76
2022/12/04 08:52:42;;;;;;;7.90;4.57;;;;;;;8.81;77.79;102219.94;5048111;28;20040;-75
2022/12/04 08:55:08;;;;;;;13.75;6.05;;;;;;;8.48;78.90;102175.00;5049091;28;20099;-75
2022/12/04 08:57:33;;;;;;;10.18;6.20;;;;;;;8.31;79.41;102153.53;5047422;28;20507;-78
2022/12/04 08:59:58;;;;;;;10.70;5.63;;;;;;;8.67;79.60;102201.81;5048667;28;20032;-76
2022/12/04 09:02:24;;;;;;;14.30;6.35;;;;;;;8.61;80.26;102202.13;5048514;28;20029;-75
2022/12/04 09:04:49;;;;;;;10.25;6.03;;;;;;;8.51;80.28;102174.88;5047216;28;20037;-79
2022/12/04 09:07:15;;;;;;;16.50;5.03;;;;;;;8.70;80.16;102193.63;5048879;28;20032;-77
2022/12/04 09:09:40;;;;;;;9.00;6.00;;;;;;;8.63;80.20;102166.22;5043275;28;20040;-79
2022/12/04 09:12:06;;;;;;;9.55;6.50;;;;;;;8.74;79.95;102195.22;5053183;28;20162;-77
2022/12/04 09:14:31;;;;;;;9.85;5.80;;;;;;;8.75;80.09;102184.41;5065516;28;20041;-76
2022/12/04 09:16:56;;;;;;;6.95;5.50;;;;;;;8.73;80.20;102183.63;5055334;28;20029;-75
2022/12/04 09:19:22;;;;;;;10.48;5.53;;;;;;;8.57;80.68;102163.84;5055443;28;20056;-76
2022/12/04 09:21:47;;;;;;;6.82;5.07;;;;;;;8.59;80.84;102172.69;5049912;28;20086;-76
2022/12/04 09:24:13;;;;;;;7.10;5.32;;;;;;;8.53;81.22;102148.84;5049144;28;20087;-77
2022/12/04 09:26:38;;;;;;;11.95;5.35;;;;;;;8.68;81.10;102180.28;5048794;28;20025;-77
2022/12/04 09:29:05;;;;;;;14.43;6.15;;;;;;;8.61;81.49;102162.75;5048469;28;20060;-76
2022/12/04 09:31:31;;;;;;;9.82;6.72;;;;;;;8.85;81.18;102173.22;5048282;28;20037;-76
2022/12/04 09:33:58;;;;;;;13.45;6.95;;;;;;;8.82;80.85;102176.94;5048021;28;20037;-76
2022/12/04 09:36:23;;;;;;;10.40;5.47;;;;;;;8.84;80.30;102160.78;5048520;28;20032;-74
2022/12/04 09:38:51;;;;;;;10.20;5.43;;;;;;;8.82;80.63;102157.28;5048544;28;20485;-76
2022/12/04 09:41:22;;;;;;;9.38;5.40;;;;;;;8.90;80.25;102155.09;5048563;28;20025;-77
2022/12/04 09:43:53;;;;;;;10.00;5.30;;;;;;;8.87;80.12;102155.25;5048463;28;20028;-75
2022/12/04 09:46:27;;;;;;;10.10;5.63;;;;;;;8.92;80.49;102150.50;5045200;28;20035;-76
2022/12/04 09:48:57;;;;;;;10.63;5.35;;;;;;;8.93;79.84;102138.84;5047434;28;20507;-75
2022/12/04 09:51:25;;;;;;;11.45;5.22;;;;;;;8.91;79.55;102143.41;5048504;28;20057;-77
2022/12/04 09:53:56;;;;;;;10.50;4.90;;;;;;;8.87;79.80;102129.25;5042556;28;20029;-77
2022/12/04 09:56:26;;;;;;;7.90;5.60;;;;;;;8.91;80.05;102146.06;5034772;28;20037;-78
2022/12/04 09:59:15;;;;;;;11.65;5.55;;;;;;;8.88;80.16;102136.38;5051174;28;20021;-78
2022/12/04 10:01:50;;;;;;;15.82;5.15;;;;;;;8.90;79.93;102134.47;5051045;28;20053;-76
2022/12/04 10:04:16;;;;;;;13.98;6.28;;;;;;;8.99;79.45;102128.63;5048020;28;20028;-76
2022/12/04 10:07:05;;;;;;;6.40;4.47;;;;;;;8.92;79.28;102123.69;5049004;28;20036;-75
2022/12/04 10:10:09;;;;;;;7.18;4.65;;;;;;;9.05;79.38;102127.50;5046686;28;20052;-77
2022/12/04 10:13:03;;;;;;;8.82;4.80;;;;;;;9.01;79.31;102121.41;5048697;28;20068;-76
2022/12/04 10:15:38;;;;;;;8.02;4.70;;;;;;;8.65;79.33;102054.38;5030537;28;20159;-75
2022/12/04 10:18:06;;;;;;;7.00;4.53;;;;;;;9.10;79.26;102115.56;5044269;28;20028;-76
2022/12/04 10:20:52;;;;;;;10.93;5.30;;;;;;;9.09;78.85;102103.06;5055226;28;20467;-78
2022/12/04 10:23:24;;;;;;;8.15;4.47;;;;;;;9.25;78.33;102113.88;5053847;28;20044;-75
2022/12/04 10:25:52;;;;;;;10.45;5.22;;;;;;;9.01;78.20;102073.09;5030934;28;20041;-77
2022/12/04 10:28:31;;;;;;;6.32;4.50;;;;;;;9.28;77.84;102111.03;5048328;28;20025;-75
2022/12/04 10:31:00;;;;;;;11.75;5.65;;;;;;;9.23;77.64;102102.38;5049771;28;20143;-77
2022/12/04 10:33:46;;;;;;;6.25;4.55;;;;;;;9.28;77.82;102109.22;5049571;28;20060;-76
2022/12/04 10:36:17;;;;;;;9.73;5.35;;;;;;;9.30;77.46;102111.81;5049502;28;20073;-76
2022/12/04 10:38:54;;;;;;;8.40;4.68;;;;;;;9.01;77.66;102078.47;5050123;28;20091;-75
2022/12/04 10:41:50;;;;;;;12.23;5.53;;;;;;;9.26;77.85;102116.47;5050027;28;20116;-77
2022/12/04 10:44:18;;;;;;;10.18;5.78;;;;;;;9.25;78.00;102100.47;5050111;28;20033;-76
2022/12/04 10:46:43;;;;;;;13.52;5.32;;;;;;;9.29;77.34;102094.84;5049819;28;20025;-75
2022/12/04 10:49:24;;;;;;;10.73;6.10;;;;;;;9.43;77.58;102102.19;5049558;28;20464;-74
2022/12/04 10:51:49;;;;;;;15.18;7.43;;;;;;;9.47;77.23;102098.41;5047792;28;20068;-76
2022/12/04 10:54:18;;;;;;;15.00;6.93;;;;;;;9.41;77.27;102074.56;5049716;28;20033;-76
2022/12/04 10:56:52;;;;;;;18.65;8.48;;;;;;;9.53;77.28;102090.00;5049629;28;20387;-75
2022/12/04 10:59:18;;;;;;;9.48;5.63;;;;;;;9.56;76.57;102091.66;5050147;28;20492;-76
2022/12/04 11:01:44;;;;;;;12.88;6.82;;;;;;;9.60;76.33;102086.00;5049849;28;20029;-76
2022/12/04 11:04:23;;;;;;;11.07;5.80;;;;;;;9.56;76.57;102086.28;5049921;28;20040;-74
2022/12/04 11:06:50;;;;;;;7.63;5.00;;;;;;;9.57;76.28;102088.03;5049575;28;20036;-75
2022/12/04 11:09:22;;;;;;;11.32;6.45;;;;;;;9.19;75.67;102023.81;5050050;28;20044;-76
2022/12/04 11:11:48;;;;;;;11.07;6.18;;;;;;;9.48;76.45;102075.94;5049589;28;20029;-75
2022/12/04 11:14:21;;;;;;;13.02;5.35;;;;;;;9.57;75.83;102072.75;5049409;28;20088;-76
2022/12/04 11:16:58;;;;;;;8.23;5.30;;;;;;;9.58;75.63;102074.50;5049232;28;20025;-75
2022/12/04 11:19:26;;;;;;;10.75;5.72;;;;;;;9.54;76.06;102072.91;5049557;28;20116;-77
2022/12/04 11:21:55;;;;;;;11.35;6.63;;;;;;;9.53;76.39;102073.88;5052990;28;20036;-76
2022/12/04 11:24:28;;;;;;;11.63;7.00;;;;;;;9.64;76.41;102068.78;5053185;28;20036;-78
2022/12/04 11:26:55;;;;;;;10.82;5.80;;;;;;;9.64;76.03;102062.53;5052634;28;20029;-77
2022/12/04 11:29:30;;;;;;;16.45;6.05;;;;;;;9.52;75.27;102037.22;5047726;28;20455;-75
2022/12/04 11:31:56;;;;;;;11.25;6.38;;;;;;;9.62;75.87;102056.41;5049058;28;20490;-76
2022/12/04 11:34:27;;;;;;;13.02;5.75;;;;;;;9.65;75.62;102062.47;5049220;28;20253;-75
2022/12/04 11:36:56;;;;;;;14.32;8.18;;;;;;;9.60;75.31;102061.84;5049626;28;20421;-75
2022/12/04 11:39:37;;;;;;;8.23;4.78;;;;;;;9.41;75.52;102050.38;5049882;28;20025;-75
2022/12/04 11:42:12;;;;;;;18.20;5.40;;;;;;;9.35;75.69;102050.72;5050447;28;20112;-75
2022/12/04 11:44:38;;;;;;;9.90;4.82;;;;;;;9.49;75.67;102064.25;5051473;28;20040;-75
2022/12/04 11:47:15;;;;;;;7.30;5.60;;;;;;;9.45;76.29;102062.66;5050842;28;20037;-75
2022/12/04 11:49:41;;;;;;;10.65;5.97;;;;;;;9.42;76.16;102064.69;5049515;28;20040;-76
2022/12/04 11:52:38;;;;;;;14.40;6.10;;;;;;;9.36;76.98;102076.59;5049857;28;20637;-76
2022/12/04 11:55:31;;;;;;;9.13;5.10;;;;;;;9.40;76.93;102078.19;5049061;28;20028;-76